sensor_id;sensor_type;location;lat;lon;timestamp;pressure;altitude;pressure_sealevel;temperature;humidity
14393;BME280;7281;42.678;23.372;2023-02-26T00:01:24;93935.84;;;18.27;29.55
14393;BME280;7281;42.678;23.372;2023-02-26T00:03:53;93933.63;;;18.50;29.30
14393;BME280;7281;42.678;23.372;2023-02-26T00:06:20;93939.41;;;18.64;29.00
14393;BME280;7281;42.678;23.372;2023-02-26T00:08:47;93931.59;;;18.14;30.02
14393;BME280;7281;42.678;23.372;2023-02-26T00:11:14;93926.69;;;18.04;29.84
14393;BME280;7281;42.678;23.372;2023-02-26T00:13:42;93924.69;;;18.54;29.08
14393;BME280;7281;42.678;23.372;2023-02-26T00:16:32;93917.91;;;19.01;28.29
14393;BME280;7281;42.678;23.372;2023-02-26T00:19:03;93918.13;;;18.84;29.15
14393;BME280;7281;42.678;23.372;2023-02-26T00:21:30;93914.13;;;18.78;28.83
14393;BME280;7281;42.678;23.372;2023-02-26T00:23:58;93917.84;;;18.33;28.96
14393;BME280;7281;42.678;23.372;2023-02-26T00:26:28;93914.50;;;18.44;29.34
14393;BME280;7281;42.678;23.372;2023-02-26T00:28:56;93917.00;;;18.73;29.32
14393;BME280;7281;42.678;23.372;2023-02-26T00:31:23;93908.16;;;18.81;28.92
14393;BME280;7281;42.678;23.372;2023-02-26T00:33:54;93912.59;;;19.26;28.54
14393;BME280;7281;42.678;23.372;2023-02-26T00:41:46;93901.41;;;18.96;29.19
14393;BME280;7281;42.678;23.372;2023-02-26T00:44:13;93901.09;;;19.09;28.69
14393;BME280;7281;42.678;23.372;2023-02-26T00:46:46;93894.69;;;18.42;29.32
14393;BME280;7281;42.678;23.372;2023-02-26T00:49:25;93892.44;;;18.64;29.29
14393;BME280;7281;42.678;23.372;2023-02-26T00:51:58;93896.56;;;19.10;28.89
14393;BME280;7281;42.678;23.372;2023-02-26T00:54:29;93889.81;;;19.25;28.58
14393;BME280;7281;42.678;23.372;2023-02-26T00:56:57;93880.97;;;19.08;28.90
14393;BME280;7281;42.678;23.372;2023-02-26T00:59:25;93879.28;;;18.80;29.12
14393;BME280;7281;42.678;23.372;2023-02-26T01:01:53;93877.22;;;18.41;29.36
14393;BME280;7281;42.678;23.372;2023-02-26T01:04:22;93894.97;;;18.73;29.04
14393;BME280;7281;42.678;23.372;2023-02-26T01:06:52;93888.03;;;18.68;28.91
14393;BME280;7281;42.678;23.372;2023-02-26T01:09:27;93876.31;;;18.93;28.79
14393;BME280;7281;42.678;23.372;2023-02-26T01:11:56;93863.94;;;19.09;28.85
14393;BME280;7281;42.678;23.372;2023-02-26T01:14:27;93861.72;;;18.75;28.85
14393;BME280;7281;42.678;23.372;2023-02-26T01:17:30;93860.38;;;18.81;28.22
14393;BME280;7281;42.678;23.372;2023-02-26T01:20:18;93867.34;;;18.86;28.11
14393;BME280;7281;42.678;23.372;2023-02-26T01:23:08;93848.19;;;18.56;28.33
14393;BME280;7281;42.678;23.372;2023-02-26T01:25:48;93840.72;;;18.82;27.99
14393;BME280;7281;42.678;23.372;2023-02-26T01:28:16;93828.53;;;18.93;27.58
14393;BME280;7281;42.678;23.372;2023-02-26T01:30:43;93837.72;;;19.08;27.61
14393;BME280;7281;42.678;23.372;2023-02-26T01:33:27;93828.78;;;18.88;27.35
14393;BME280;7281;42.678;23.372;2023-02-26T01:36:02;93803.66;;;18.62;27.87
14393;BME280;7281;42.678;23.372;2023-02-26T01:38:40;93823.78;;;18.99;27.75
14393;BME280;7281;42.678;23.372;2023-02-26T01:49:14;93801.56;;;18.55;27.59
14393;BME280;7281;42.678;23.372;2023-02-26T01:51:55;93801.56;;;18.67;27.66
14393;BME280;7281;42.678;23.372;2023-02-26T01:54:24;93801.13;;;18.77;27.74
14393;BME280;7281;42.678;23.372;2023-02-26T01:57:21;93792.34;;;19.13;27.58
14393;BME280;7281;42.678;23.372;2023-02-26T01:59:49;93821.13;;;18.75;27.33
14393;BME280;7281;42.678;23.372;2023-02-26T02:02:21;93805.09;;;18.71;27.19
14393;BME280;7281;42.678;23.372;2023-02-26T02:04:49;93803.25;;;18.15;27.56
14393;BME280;7281;42.678;23.372;2023-02-26T02:07:17;93788.41;;;18.83;26.97
14393;BME280;7281;42.678;23.372;2023-02-26T02:09:45;93795.56;;;18.94;27.22
14393;BME280;7281;42.678;23.372;2023-02-26T02:15:08;93810.28;;;18.80;27.12
14393;BME280;7281;42.678;23.372;2023-02-26T02:23:42;93800.09;;;18.46;27.72
14393;BME280;7281;42.678;23.372;2023-02-26T02:26:40;93791.84;;;18.71;27.17
14393;BME280;7281;42.678;23.372;2023-02-26T02:32:09;93801.28;;;18.24;27.15
14393;BME280;7281;42.678;23.372;2023-02-26T02:40:23;93782.31;;;18.82;26.33
14393;BME280;7281;42.678;23.372;2023-02-26T02:42:53;93781.41;;;19.02;26.31
14393;BME280;7281;42.678;23.372;2023-02-26T02:45:55;93809.41;;;18.76;26.24
14393;BME280;7281;42.678;23.372;2023-02-26T02:48:31;93793.34;;;19.08;25.89
14393;BME280;7281;42.678;23.372;2023-02-26T02:51:23;93808.41;;;18.92;25.86
14393;BME280;7281;42.678;23.372;2023-02-26T02:53:56;93823.88;;;18.78;26.23
14393;BME280;7281;42.678;23.372;2023-02-26T02:59:08;93801.72;;;18.38;25.90
14393;BME280;7281;42.678;23.372;2023-02-26T03:01:38;93789.84;;;18.56;26.46
14393;BME280;7281;42.678;23.372;2023-02-26T03:04:11;93798.78;;;18.52;26.32
14393;BME280;7281;42.678;23.372;2023-02-26T03:06:41;93801.53;;;19.03;25.93
14393;BME280;7281;42.678;23.372;2023-02-26T03:09:09;93819.00;;;18.56;25.52
14393;BME280;7281;42.678;23.372;2023-02-26T03:11:39;93826.78;;;17.84;26.87
14393;BME280;7281;42.678;23.372;2023-02-26T03:14:08;93824.16;;;17.96;26.59
14393;BME280;7281;42.678;23.372;2023-02-26T03:17:01;93802.00;;;18.81;25.69
14393;BME280;7281;42.678;23.372;2023-02-26T03:22:30;93780.75;;;18.81;25.62
14393;BME280;7281;42.678;23.372;2023-02-26T03:30:07;93808.44;;;18.68;24.75
14393;BME280;7281;42.678;23.372;2023-02-26T03:33:02;93797.97;;;19.23;25.64
14393;BME280;7281;42.678;23.372;2023-02-26T03:35:42;93809.97;;;18.69;25.90
14393;BME280;7281;42.678;23.372;2023-02-26T03:38:15;93820.38;;;18.86;25.27
14393;BME280;7281;42.678;23.372;2023-02-26T03:40:47;93804.44;;;18.86;25.37
14393;BME280;7281;42.678;23.372;2023-02-26T03:43:41;93802.88;;;18.61;26.64
14393;BME280;7281;42.678;23.372;2023-02-26T03:46:15;93781.53;;;18.58;25.86
14393;BME280;7281;42.678;23.372;2023-02-26T03:48:45;93805.22;;;18.63;25.74
14393;BME280;7281;42.678;23.372;2023-02-26T03:51:14;93797.47;;;18.82;25.27
14393;BME280;7281;42.678;23.372;2023-02-26T03:54:16;93763.63;;;18.91;25.24
14393;BME280;7281;42.678;23.372;2023-02-26T03:56:52;93796.03;;;18.84;25.29
14393;BME280;7281;42.678;23.372;2023-02-26T03:59:38;93790.25;;;18.94;25.30
14393;BME280;7281;42.678;23.372;2023-02-26T04:02:35;93776.09;;;19.02;25.52
14393;BME280;7281;42.678;23.372;2023-02-26T04:05:19;93784.31;;;18.97;25.69
14393;BME280;7281;42.678;23.372;2023-02-26T04:07:47;93776.13;;;18.78;25.89
14393;BME280;7281;42.678;23.372;2023-02-26T04:10:18;93795.59;;;18.82;25.74
14393;BME280;7281;42.678;23.372;2023-02-26T04:12:49;93794.63;;;18.18;26.07
14393;BME280;7281;42.678;23.372;2023-02-26T04:15:16;93765.72;;;18.61;25.68
14393;BME280;7281;42.678;23.372;2023-02-26T04:17:42;93771.28;;;18.44;26.55
14393;BME280;7281;42.678;23.372;2023-02-26T04:20:09;93775.59;;;18.16;26.49
14393;BME280;7281;42.678;23.372;2023-02-26T04:22:38;93772.16;;;18.48;25.85
14393;BME280;7281;42.678;23.372;2023-02-26T04:25:05;93781.31;;;18.51;25.73
14393;BME280;7281;42.678;23.372;2023-02-26T04:27:32;93768.81;;;18.63;25.49
14393;BME280;7281;42.678;23.372;2023-02-26T04:30:00;93763.53;;;18.75;25.14
14393;BME280;7281;42.678;23.372;2023-02-26T04:32:28;93773.25;;;18.83;25.38
14393;BME280;7281;42.678;23.372;2023-02-26T04:34:56;93754.09;;;18.78;25.37
14393;BME280;7281;42.678;23.372;2023-02-26T04:37:23;93739.97;;;18.62;25.70
14393;BME280;7281;42.678;23.372;2023-02-26T04:39:50;93738.75;;;18.71;25.15
14393;BME280;7281;42.678;23.372;2023-02-26T04:42:17;93725.16;;;18.49;25.90
14393;BME280;7281;42.678;23.372;2023-02-26T04:44:44;93727.50;;;18.50;26.06
14393;BME280;7281;42.678;23.372;2023-02-26T04:47:12;93747.97;;;17.60;26.95
14393;BME280;7281;42.678;23.372;2023-02-26T04:49:39;93739.38;;;18.20;26.42
14393;BME280;7281;42.678;23.372;2023-02-26T04:52:06;93736.50;;;18.25;26.37
14393;BME280;7281;42.678;23.372;2023-02-26T04:54:33;93729.44;;;18.29;26.14
14393;BME280;7281;42.678;23.372;2023-02-26T04:57:00;93721.97;;;18.43;26.08
14393;BME280;7281;42.678;23.372;2023-02-26T04:59:27;93737.63;;;18.36;26.28
14393;BME280;7281;42.678;23.372;2023-02-26T05:01:55;93747.28;;;18.53;25.99
14393;BME280;7281;42.678;23.372;2023-02-26T05:04:22;93754.00;;;18.26;25.95
14393;BME280;7281;42.678;23.372;2023-02-26T05:06:52;93748.75;;;17.93;26.61
14393;BME280;7281;42.678;23.372;2023-02-26T05:09:19;93724.03;;;18.38;26.27
14393;BME280;7281;42.678;23.372;2023-02-26T05:11:47;93745.13;;;18.34;26.04
14393;BME280;7281;42.678;23.372;2023-02-26T05:14:15;93736.78;;;18.56;25.82
14393;BME280;7281;42.678;23.372;2023-02-26T05:16:46;93715.09;;;18.30;26.29
14393;BME280;7281;42.678;23.372;2023-02-26T05:19:12;93730.03;;;18.47;26.67
14393;BME280;7281;42.678;23.372;2023-02-26T05:21:39;93730.56;;;18.28;26.88
14393;BME280;7281;42.678;23.372;2023-02-26T05:24:06;93714.44;;;18.45;27.06
14393;BME280;7281;42.678;23.372;2023-02-26T05:26:33;93723.91;;;18.34;26.70
14393;BME280;7281;42.678;23.372;2023-02-26T05:29:01;93720.16;;;18.23;27.00
14393;BME280;7281;42.678;23.372;2023-02-26T05:31:28;93738.34;;;17.88;27.66
14393;BME280;7281;42.678;23.372;2023-02-26T05:33:55;93720.84;;;18.08;26.84
14393;BME280;7281;42.678;23.372;2023-02-26T05:36:22;93732.31;;;18.24;26.71
14393;BME280;7281;42.678;23.372;2023-02-26T05:38:49;93734.31;;;18.27;26.44
14393;BME280;7281;42.678;23.372;2023-02-26T05:41:16;93732.31;;;18.12;27.24
14393;BME280;7281;42.678;23.372;2023-02-26T05:43:43;93725.72;;;18.30;26.80
14393;BME280;7281;42.678;23.372;2023-02-26T05:46:10;93726.13;;;18.32;26.77
14393;BME280;7281;42.678;23.372;2023-02-26T05:48:37;93719.28;;;18.31;26.90
14393;BME280;7281;42.678;23.372;2023-02-26T05:51:04;93742.50;;;18.22;26.97
14393;BME280;7281;42.678;23.372;2023-02-26T05:53:31;93741.19;;;18.28;26.12
14393;BME280;7281;42.678;23.372;2023-02-26T05:55:58;93745.59;;;18.36;26.54
14393;BME280;7281;42.678;23.372;2023-02-26T05:58:25;93727.72;;;18.45;25.51
14393;BME280;7281;42.678;23.372;2023-02-26T06:00:51;93737.19;;;18.22;26.16
14393;BME280;7281;42.678;23.372;2023-02-26T06:03:18;93744.28;;;18.30;25.50
14393;BME280;7281;42.678;23.372;2023-02-26T06:05:45;93729.78;;;18.28;25.61
14393;BME280;7281;42.678;23.372;2023-02-26T06:08:12;93744.69;;;18.32;26.09
14393;BME280;7281;42.678;23.372;2023-02-26T06:10:41;93745.50;;;18.69;25.26
14393;BME280;7281;42.678;23.372;2023-02-26T06:13:08;93735.88;;;18.76;24.87
14393;BME280;7281;42.678;23.372;2023-02-26T06:15:35;93727.22;;;18.91;25.09
14393;BME280;7281;42.678;23.372;2023-02-26T06:18:01;93734.78;;;18.77;25.07
14393;BME280;7281;42.678;23.372;2023-02-26T06:20:28;93757.66;;;18.94;25.03
14393;BME280;7281;42.678;23.372;2023-02-26T06:22:55;93756.09;;;18.93;24.98
14393;BME280;7281;42.678;23.372;2023-02-26T06:25:22;93753.84;;;19.07;25.00
14393;BME280;7281;42.678;23.372;2023-02-26T06:27:49;93751.03;;;18.88;23.97
14393;BME280;7281;42.678;23.372;2023-02-26T06:30:16;93743.56;;;19.05;24.38
14393;BME280;7281;42.678;23.372;2023-02-26T06:32:43;93744.16;;;18.75;23.86
14393;BME280;7281;42.678;23.372;2023-02-26T06:35:10;93747.75;;;19.18;23.92
14393;BME280;7281;42.678;23.372;2023-02-26T06:37:37;93757.09;;;18.76;24.06
14393;BME280;7281;42.678;23.372;2023-02-26T06:40:04;93780.53;;;18.74;23.87
14393;BME280;7281;42.678;23.372;2023-02-26T06:42:31;93757.47;;;19.14;23.44
14393;BME280;7281;42.678;23.372;2023-02-26T06:44:58;93747.44;;;19.08;23.20
14393;BME280;7281;42.678;23.372;2023-02-26T06:47:25;93738.88;;;19.66;23.17
14393;BME280;7281;42.678;23.372;2023-02-26T06:49:52;93754.00;;;20.09;23.10
14393;BME280;7281;42.678;23.372;2023-02-26T06:52:18;93748.91;;;20.16;22.51
14393;BME280;7281;42.678;23.372;2023-02-26T06:54:45;93795.97;;;19.20;23.08
14393;BME280;7281;42.678;23.372;2023-02-26T06:57:12;93740.56;;;19.59;22.86
14393;BME280;7281;42.678;23.372;2023-02-26T06:59:39;93739.66;;;19.82;22.24
14393;BME280;7281;42.678;23.372;2023-02-26T07:02:05;93753.22;;;19.50;22.44
14393;BME280;7281;42.678;23.372;2023-02-26T07:04:32;93715.31;;;19.53;22.67
14393;BME280;7281;42.678;23.372;2023-02-26T07:06:59;93716.91;;;20.12;22.48
14393;BME280;7281;42.678;23.372;2023-02-26T07:09:26;93739.13;;;19.77;22.31
14393;BME280;7281;42.678;23.372;2023-02-26T07:11:53;93733.16;;;20.11;22.75
14393;BME280;7281;42.678;23.372;2023-02-26T07:14:19;93749.34;;;19.75;22.43
14393;BME280;7281;42.678;23.372;2023-02-26T07:16:46;93736.97;;;20.26;22.07
14393;BME280;7281;42.678;23.372;2023-02-26T07:19:13;93715.25;;;20.08;22.03
14393;BME280;7281;42.678;23.372;2023-02-26T07:21:42;93732.50;;;20.14;22.39
14393;BME280;7281;42.678;23.372;2023-02-26T07:24:09;93706.53;;;20.23;21.71
14393;BME280;7281;42.678;23.372;2023-02-26T07:26:37;93710.78;;;20.74;21.93
14393;BME280;7281;42.678;23.372;2023-02-26T07:29:04;93733.13;;;20.39;21.85
14393;BME280;7281;42.678;23.372;2023-02-26T07:31:31;93737.41;;;20.12;21.80
14393;BME280;7281;42.678;23.372;2023-02-26T07:33:58;93749.88;;;19.53;22.22
14393;BME280;7281;42.678;23.372;2023-02-26T07:36:25;93730.69;;;19.87;22.34
14393;BME280;7281;42.678;23.372;2023-02-26T07:38:52;93734.50;;;20.17;21.81
14393;BME280;7281;42.678;23.372;2023-02-26T07:41:19;93751.94;;;19.87;21.88
14393;BME280;7281;42.678;23.372;2023-02-26T07:43:46;93715.63;;;20.22;21.39
14393;BME280;7281;42.678;23.372;2023-02-26T07:46:13;93772.13;;;20.03;21.84
14393;BME280;7281;42.678;23.372;2023-02-26T07:48:40;93751.00;;;19.52;21.84
14393;BME280;7281;42.678;23.372;2023-02-26T07:51:07;93734.78;;;20.43;21.69
14393;BME280;7281;42.678;23.372;2023-02-26T07:53:34;93745.41;;;20.43;21.57
14393;BME280;7281;42.678;23.372;2023-02-26T07:56:01;93744.41;;;19.89;21.32
14393;BME280;7281;42.678;23.372;2023-02-26T07:58:28;93720.75;;;20.46;21.37
14393;BME280;7281;42.678;23.372;2023-02-26T08:00:57;93745.69;;;20.88;20.94
14393;BME280;7281;42.678;23.372;2023-02-26T08:03:24;93751.88;;;19.56;21.68
14393;BME280;7281;42.678;23.372;2023-02-26T08:05:50;93765.50;;;20.25;21.42
14393;BME280;7281;42.678;23.372;2023-02-26T08:08:17;93749.59;;;20.60;21.07
14393;BME280;7281;42.678;23.372;2023-02-26T08:10:44;93747.16;;;20.86;20.53
14393;BME280;7281;42.678;23.372;2023-02-26T08:13:11;93759.75;;;21.20;20.38
14393;BME280;7281;42.678;23.372;2023-02-26T08:15:37;93725.94;;;20.89;20.37
14393;BME280;7281;42.678;23.372;2023-02-26T08:18:04;93753.53;;;21.51;20.58
14393;BME280;7281;42.678;23.372;2023-02-26T08:20:31;93734.75;;;20.93;20.27
14393;BME280;7281;42.678;23.372;2023-02-26T08:22:58;93743.78;;;20.54;20.75
14393;BME280;7281;42.678;23.372;2023-02-26T08:25:24;93734.50;;;20.98;20.28
14393;BME280;7281;42.678;23.372;2023-02-26T08:27:51;93750.34;;;20.60;20.62
14393;BME280;7281;42.678;23.372;2023-02-26T08:30:19;93762.25;;;20.47;21.04
14393;BME280;7281;42.678;23.372;2023-02-26T08:32:46;93774.50;;;20.67;20.91
14393;BME280;7281;42.678;23.372;2023-02-26T08:35:13;93745.16;;;21.33;20.28
14393;BME280;7281;42.678;23.372;2023-02-26T08:37:39;93765.72;;;21.52;19.69
14393;BME280;7281;42.678;23.372;2023-02-26T08:40:09;93782.69;;;21.63;19.90
14393;BME280;7281;42.678;23.372;2023-02-26T08:42:41;93794.94;;;20.63;20.84
14393;BME280;7281;42.678;23.372;2023-02-26T08:45:08;93764.56;;;20.99;20.21
14393;BME280;7281;42.678;23.372;2023-02-26T08:47:37;93765.03;;;20.70;20.45
14393;BME280;7281;42.678;23.372;2023-02-26T08:50:23;93780.84;;;21.29;20.24
14393;BME280;7281;42.678;23.372;2023-02-26T08:52:51;93764.34;;;21.77;19.93
14393;BME280;7281;42.678;23.372;2023-02-26T08:55:20;93777.81;;;21.84;19.57
14393;BME280;7281;42.678;23.372;2023-02-26T08:57:47;93775.13;;;21.65;19.56
14393;BME280;7281;42.678;23.372;2023-02-26T09:00:14;93762.19;;;22.24;19.75
14393;BME280;7281;42.678;23.372;2023-02-26T09:02:45;93769.63;;;22.15;19.07
14393;BME280;7281;42.678;23.372;2023-02-26T09:05:11;93769.88;;;22.52;19.39
14393;BME280;7281;42.678;23.372;2023-02-26T09:07:42;93757.25;;;22.71;19.64
14393;BME280;7281;42.678;23.372;2023-02-26T09:10:10;93759.22;;;21.87;19.15
14393;BME280;7281;42.678;23.372;2023-02-26T09:12:37;93763.72;;;22.48;18.38
14393;BME280;7281;42.678;23.372;2023-02-26T09:15:05;93768.06;;;22.33;19.11
14393;BME280;7281;42.678;23.372;2023-02-26T09:17:32;93777.84;;;22.71;18.50
14393;BME280;7281;42.678;23.372;2023-02-26T09:20:00;93748.44;;;23.23;19.02
14393;BME280;7281;42.678;23.372;2023-02-26T09:22:27;93749.97;;;23.21;18.20
14393;BME280;7281;42.678;23.372;2023-02-26T09:24:53;93742.69;;;22.01;18.57
14393;BME280;7281;42.678;23.372;2023-02-26T09:27:21;93743.38;;;23.14;18.18
14393;BME280;7281;42.678;23.372;2023-02-26T09:29:47;93744.44;;;22.35;18.67
14393;BME280;7281;42.678;23.372;2023-02-26T09:32:14;93750.00;;;21.47;18.96
14393;BME280;7281;42.678;23.372;2023-02-26T09:34:41;93753.22;;;22.13;18.66
14393;BME280;7281;42.678;23.372;2023-02-26T09:37:08;93731.09;;;22.12;18.84
14393;BME280;7281;42.678;23.372;2023-02-26T09:39:35;93736.19;;;22.92;17.98
14393;BME280;7281;42.678;23.372;2023-02-26T09:42:43;93762.66;;;22.75;17.75
14393;BME280;7281;42.678;23.372;2023-02-26T09:45:24;93759.16;;;23.82;17.76
14393;BME280;7281;42.678;23.372;2023-02-26T09:47:53;93756.34;;;23.68;17.25
14393;BME280;7281;42.678;23.372;2023-02-26T09:50:24;93768.63;;;22.68;17.53
14393;BME280;7281;42.678;23.372;2023-02-26T09:53:17;93752.06;;;22.82;18.21
14393;BME280;7281;42.678;23.372;2023-02-26T09:55:48;93750.75;;;22.95;18.80
14393;BME280;7281;42.678;23.372;2023-02-26T10:12:16;93772.34;;;22.60;18.41
14393;BME280;7281;42.678;23.372;2023-02-26T10:20:03;93742.00;;;24.64;18.51
14393;BME280;7281;42.678;23.372;2023-02-26T10:22:36;93735.63;;;24.35;17.81
14393;BME280;7281;42.678;23.372;2023-02-26T10:30:38;93751.09;;;23.79;17.32
14393;BME280;7281;42.678;23.372;2023-02-26T10:33:35;93730.66;;;23.04;17.95
14393;BME280;7281;42.678;23.372;2023-02-26T10:38:38;93734.56;;;22.84;17.42
14393;BME280;7281;42.678;23.372;2023-02-26T10:41:12;93708.97;;;23.09;18.57
14393;BME280;7281;42.678;23.372;2023-02-26T10:43:43;93701.50;;;23.22;18.24
14393;BME280;7281;42.678;23.372;2023-02-26T10:48:58;93692.13;;;23.05;17.65
14393;BME280;7281;42.678;23.372;2023-02-26T10:51:37;93686.63;;;22.95;17.63
14393;BME280;7281;42.678;23.372;2023-02-26T10:54:27;93728.00;;;23.04;17.82
14393;BME280;7281;42.678;23.372;2023-02-26T10:56:55;93696.16;;;23.22;17.01
14393;BME280;7281;42.678;23.372;2023-02-26T10:59:22;93685.13;;;23.27;17.47
14393;BME280;7281;42.678;23.372;2023-02-26T11:01:50;93686.22;;;23.89;16.95
14393;BME280;7281;42.678;23.372;2023-02-26T11:04:21;93688.88;;;24.22;16.66
14393;BME280;7281;42.678;23.372;2023-02-26T11:06:57;93686.69;;;24.38;17.57
14393;BME280;7281;42.678;23.372;2023-02-26T11:09:34;93678.13;;;22.37;18.46
14393;BME280;7281;42.678;23.372;2023-02-26T11:12:13;93698.59;;;22.78;18.34
14393;BME280;7281;42.678;23.372;2023-02-26T11:14:44;93692.50;;;22.29;18.93
14393;BME280;7281;42.678;23.372;2023-02-26T11:17:23;93691.78;;;23.37;18.21
14393;BME280;7281;42.678;23.372;2023-02-26T11:19:58;93693.53;;;23.26;18.23
14393;BME280;7281;42.678;23.372;2023-02-26T11:22:29;93666.56;;;23.38;19.31
14393;BME280;7281;42.678;23.372;2023-02-26T11:24:57;93681.16;;;23.44;19.12
14393;BME280;7281;42.678;23.372;2023-02-26T11:27:35;93690.66;;;23.74;18.50
14393;BME280;7281;42.678;23.372;2023-02-26T11:30:06;93696.84;;;23.82;18.27
14393;BME280;7281;42.678;23.372;2023-02-26T11:32:37;93713.06;;;23.30;18.73
14393;BME280;7281;42.678;23.372;2023-02-26T11:35:08;93684.31;;;23.53;18.34
14393;BME280;7281;42.678;23.372;2023-02-26T11:37:40;93694.38;;;23.30;18.36
14393;BME280;7281;42.678;23.372;2023-02-26T11:40:18;93717.03;;;22.38;18.70
14393;BME280;7281;42.678;23.372;2023-02-26T11:42:58;93700.34;;;22.93;18.33
14393;BME280;7281;42.678;23.372;2023-02-26T11:45:27;93699.81;;;23.10;18.02
14393;BME280;7281;42.678;23.372;2023-02-26T11:48:03;93702.59;;;23.47;17.72
14393;BME280;7281;42.678;23.372;2023-02-26T11:50:41;93713.75;;;23.27;17.62
14393;BME280;7281;42.678;23.372;2023-02-26T11:56:18;93722.16;;;23.55;19.34
14393;BME280;7281;42.678;23.372;2023-02-26T11:58:46;93733.25;;;23.57;18.55
14393;BME280;7281;42.678;23.372;2023-02-26T12:01:20;93745.91;;;23.93;18.14
14393;BME280;7281;42.678;23.372;2023-02-26T12:03:57;93731.63;;;24.15;18.26
14393;BME280;7281;42.678;23.372;2023-02-26T12:06:24;93762.59;;;22.97;18.53
14393;BME280;7281;42.678;23.372;2023-02-26T12:08:51;93770.38;;;23.32;18.45
14393;BME280;7281;42.678;23.372;2023-02-26T12:11:37;93765.31;;;23.01;19.27
14393;BME280;7281;42.678;23.372;2023-02-26T12:17:14;93758.34;;;24.12;18.79
14393;BME280;7281;42.678;23.372;2023-02-26T12:28:30;93754.19;;;23.81;19.32
14393;BME280;7281;42.678;23.372;2023-02-26T12:45:51;93726.84;;;23.05;20.90
14393;BME280;7281;42.678;23.372;2023-02-26T12:56:42;93765.09;;;24.75;20.54
14393;BME280;7281;42.678;23.372;2023-02-26T13:10:43;93749.09;;;24.02;20.29
14393;BME280;7281;42.678;23.372;2023-02-26T13:21:04;93759.72;;;22.83;20.71
14393;BME280;7281;42.678;23.372;2023-02-26T13:23:43;93776.13;;;21.95;21.07
14393;BME280;7281;42.678;23.372;2023-02-26T13:26:12;93769.09;;;21.87;20.83
14393;BME280;7281;42.678;23.372;2023-02-26T13:28:43;93780.00;;;22.20;21.06
14393;BME280;7281;42.678;23.372;2023-02-26T13:31:19;93774.69;;;22.65;20.58
14393;BME280;7281;42.678;23.372;2023-02-26T13:33:48;93769.81;;;22.93;20.90
14393;BME280;7281;42.678;23.372;2023-02-26T13:36:16;93767.78;;;23.69;19.47
14393;BME280;7281;42.678;23.372;2023-02-26T13:41:37;93753.47;;;22.98;19.97
14393;BME280;7281;42.678;23.372;2023-02-26T13:49:55;93769.75;;;22.22;20.22
14393;BME280;7281;42.678;23.372;2023-02-26T13:52:30;93759.47;;;22.66;20.28
14393;BME280;7281;42.678;23.372;2023-02-26T13:54:57;93761.97;;;22.81;19.50
14393;BME280;7281;42.678;23.372;2023-02-26T14:02:49;93766.78;;;23.80;19.31
14393;BME280;7281;42.678;23.372;2023-02-26T14:08:18;93744.59;;;24.13;19.69
14393;BME280;7281;42.678;23.372;2023-02-26T14:11:05;93760.09;;;24.30;20.14
14393;BME280;7281;42.678;23.372;2023-02-26T14:16:39;93775.31;;;24.23;20.29
14393;BME280;7281;42.678;23.372;2023-02-26T14:22:17;93780.16;;;24.10;24.53
14393;BME280;7281;42.678;23.372;2023-02-26T14:24:53;93783.44;;;24.00;20.70
14393;BME280;7281;42.678;23.372;2023-02-26T14:32:29;93764.28;;;22.83;19.31
14393;BME280;7281;42.678;23.372;2023-02-26T14:35:05;93797.75;;;22.73;21.66
14393;BME280;7281;42.678;23.372;2023-02-26T14:37:37;93795.69;;;22.89;21.30
14393;BME280;7281;42.678;23.372;2023-02-26T14:40:15;93792.28;;;22.92;21.40
14393;BME280;7281;42.678;23.372;2023-02-26T14:42:50;93800.41;;;22.99;20.19
14393;BME280;7281;42.678;23.372;2023-02-26T14:45:28;93784.66;;;22.68;21.01
14393;BME280;7281;42.678;23.372;2023-02-26T14:47:58;93793.34;;;22.84;20.14
14393;BME280;7281;42.678;23.372;2023-02-26T14:50:35;93814.94;;;21.92;21.14
14393;BME280;7281;42.678;23.372;2023-02-26T14:59:17;93801.72;;;22.41;20.24
14393;BME280;7281;42.678;23.372;2023-02-26T15:01:56;93805.53;;;22.85;19.92
14393;BME280;7281;42.678;23.372;2023-02-26T15:07:54;93781.72;;;22.73;20.47
14393;BME280;7281;42.678;23.372;2023-02-26T15:10:50;93813.56;;;22.63;20.51
14393;BME280;7281;42.678;23.372;2023-02-26T15:18:55;93773.19;;;22.64;20.09
14393;BME280;7281;42.678;23.372;2023-02-26T15:24:00;93818.97;;;22.66;20.34
14393;BME280;7281;42.678;23.372;2023-02-26T15:26:39;93819.06;;;21.90;21.12
14393;BME280;7281;42.678;23.372;2023-02-26T15:29:10;93826.22;;;22.24;20.60
14393;BME280;7281;42.678;23.372;2023-02-26T15:31:51;93827.56;;;22.37;20.33
14393;BME280;7281;42.678;23.372;2023-02-26T15:34:20;93814.03;;;22.46;20.57
14393;BME280;7281;42.678;23.372;2023-02-26T15:36:50;93844.75;;;22.17;21.09
14393;BME280;7281;42.678;23.372;2023-02-26T15:39:22;93826.59;;;22.45;21.01
14393;BME280;7281;42.678;23.372;2023-02-26T15:41:50;93833.47;;;21.51;21.94
14393;BME280;7281;42.678;23.372;2023-02-26T15:44:29;93851.22;;;21.28;22.80
14393;BME280;7281;42.678;23.372;2023-02-26T15:47:01;93855.66;;;21.20;23.60
14393;BME280;7281;42.678;23.372;2023-02-26T15:49:33;93842.88;;;21.98;23.39
14393;BME280;7281;42.678;23.372;2023-02-26T15:52:02;93870.53;;;22.09;22.70
14393;BME280;7281;42.678;23.372;2023-02-26T15:55:03;93827.31;;;22.23;23.30
14393;BME280;7281;42.678;23.372;2023-02-26T15:57:31;93864.84;;;21.92;23.17
14393;BME280;7281;42.678;23.372;2023-02-26T16:00:14;93887.09;;;21.65;23.36
14393;BME280;7281;42.678;23.372;2023-02-26T16:02:42;93865.91;;;21.72;22.98
14393;BME280;7281;42.678;23.372;2023-02-26T16:05:12;93887.16;;;22.03;23.12
14393;BME280;7281;42.678;23.372;2023-02-26T16:07:40;93879.03;;;22.15;23.15
14393;BME280;7281;42.678;23.372;2023-02-26T16:10:16;93901.72;;;21.71;23.92
14393;BME280;7281;42.678;23.372;2023-02-26T16:12:44;93904.88;;;21.76;23.76
14393;BME280;7281;42.678;23.372;2023-02-26T16:17:58;93883.03;;;21.71;25.38
14393;BME280;7281;42.678;23.372;2023-02-26T16:20:27;93890.25;;;22.05;24.34